createdAt,value
2022-12-22T00:02:39.939Z,59.51
2022-12-22T00:05:37.660Z,60.54
2022-12-22T00:08:24.123Z,61.06
2022-12-22T00:11:10.903Z,59.89
2022-12-22T00:13:56.806Z,59.79
2022-12-22T00:16:49.501Z,58.04
2022-12-22T00:19:35.839Z,58.25
2022-12-22T00:22:43.387Z,57.70
2022-12-22T00:25:35.713Z,58.26
2022-12-22T00:28:28.898Z,57.66
2022-12-22T00:31:14.542Z,58.67
2022-12-22T00:33:59.887Z,59.09
2022-12-22T00:36:45.561Z,58.47
2022-12-22T00:39:31.994Z,57.28
2022-12-22T00:42:17.501Z,57.82
2022-12-22T00:45:02.531Z,58.47
2022-12-22T00:47:49.962Z,58.10
2022-12-22T00:50:35.472Z,58.82
2022-12-22T00:53:22.198Z,57.54
2022-12-22T00:56:07.398Z,57.11
2022-12-22T00:58:53.608Z,57.10
2022-12-22T01:01:38.996Z,60.28
2022-12-22T01:04:24.384Z,58.71
2022-12-22T01:07:10.206Z,57.39
2022-12-22T01:09:56.034Z,58.91
2022-12-22T01:12:45.380Z,60.08
2022-12-22T01:15:37.867Z,58.28
2022-12-22T01:18:24.079Z,57.56
2022-12-22T01:21:10.101Z,57.59
2022-12-22T01:23:56.252Z,57.97
2022-12-22T01:26:41.710Z,58.42
2022-12-22T01:29:27.292Z,57.58
2022-12-22T01:32:12.868Z,56.62
2022-12-22T01:34:58.688Z,57.31
2022-12-22T01:37:44.049Z,57.63
2022-12-22T01:40:41.887Z,57.71
2022-12-22T01:43:46.161Z,56.63
2022-12-22T01:46:40.277Z,56.59
2022-12-22T01:49:33.898Z,56.25
2022-12-22T01:52:20.192Z,56.69
2022-12-22T01:55:06.708Z,59.01
2022-12-22T01:57:52.668Z,59.03
2022-12-22T02:00:38.151Z,57.27
2022-12-22T02:03:34.406Z,57.62
2022-12-22T02:06:59.565Z,57.92
2022-12-22T02:09:54.641Z,59.85
2022-12-22T02:12:54.642Z,60.26
2022-12-22T02:15:43.022Z,62.82
2022-12-22T02:18:38.684Z,59.96
2022-12-22T02:21:29.675Z,60.26
2022-12-22T02:24:42.952Z,60.27
2022-12-22T02:27:30.087Z,59.28
2022-12-22T02:30:21.637Z,61.12
2022-12-22T02:33:09.861Z,60.15
2022-12-22T02:36:05.782Z,58.98
2022-12-22T02:39:19.674Z,61.76
2022-12-22T02:42:13.870Z,60.04
2022-12-22T02:45:55.019Z,59.21
2022-12-22T02:49:35.823Z,59.75
2022-12-22T02:52:34.594Z,61.07
2022-12-22T02:55:21.242Z,58.92
2022-12-22T02:58:10.193Z,58.38
2022-12-22T03:00:57.768Z,57.42
2022-12-22T03:03:43.165Z,56.92
2022-12-22T03:06:28.749Z,56.88
2022-12-22T03:09:14.047Z,58.77
2022-12-22T03:11:59.785Z,58.57
2022-12-22T03:14:44.929Z,59.02
2022-12-22T03:17:30.268Z,59.36
2022-12-22T03:20:15.463Z,58.76
2022-12-22T03:23:00.814Z,58.50
2022-12-22T03:25:45.937Z,58.30
2022-12-22T03:28:12.629Z,59.29
2022-12-22T03:30:39.607Z,57.97
2022-12-22T03:33:06.634Z,57.58
2022-12-22T03:35:33.387Z,56.82
2022-12-22T03:38:03.570Z,57.35
2022-12-22T03:40:31.546Z,56.48
2022-12-22T03:43:16.685Z,57.29
2022-12-22T03:46:01.961Z,57.33
2022-12-22T03:48:28.638Z,57.41
2022-12-22T03:50:55.481Z,58.28
2022-12-22T03:53:22.227Z,58.74
2022-12-22T03:55:49.029Z,58.75
2022-12-22T03:58:15.868Z,57.85
2022-12-22T04:00:42.768Z,57.15
2022-12-22T04:03:09.712Z,58.49
2022-12-22T04:05:37.536Z,59.30
2022-12-22T04:08:04.575Z,58.28
2022-12-22T04:10:50.969Z,57.93
2022-12-22T04:13:17.761Z,57.52
2022-12-22T04:15:44.602Z,57.48
2022-12-22T04:18:11.582Z,57.16
2022-12-22T04:20:38.366Z,57.38
2022-12-22T04:23:05.092Z,57.83
2022-12-22T04:25:31.996Z,57.39
2022-12-22T04:27:58.815Z,57.86
2022-12-22T04:30:25.589Z,57.69
2022-12-22T04:32:52.431Z,58.70
2022-12-22T04:35:19.383Z,59.67
2022-12-22T04:37:46.017Z,58.85
2022-12-22T04:40:13.554Z,60.59
2022-12-22T04:42:40.526Z,59.58
2022-12-22T04:45:07.973Z,58.30
2022-12-22T04:47:35.013Z,59.41
2022-12-22T04:50:02.069Z,58.78
2022-12-22T04:52:28.917Z,58.47
2022-12-22T04:54:55.659Z,57.95
2022-12-22T04:57:22.609Z,57.81
2022-12-22T04:59:49.484Z,57.82
2022-12-22T05:02:16.333Z,59.55
2022-12-22T05:04:43.148Z,58.16
2022-12-22T05:07:10.121Z,57.71
2022-12-22T05:09:36.838Z,58.25
2022-12-22T05:12:23.804Z,58.20
2022-12-22T05:14:50.529Z,57.76
2022-12-22T05:17:17.487Z,57.62
2022-12-22T05:19:44.300Z,58.01
2022-12-22T05:22:11.370Z,57.60
2022-12-22T05:24:38.178Z,57.59
2022-12-22T05:27:06.464Z,57.46
2022-12-22T05:29:33.318Z,57.36
2022-12-22T05:32:00.326Z,57.76
2022-12-22T05:34:27.460Z,57.38
2022-12-22T05:36:54.287Z,57.17
2022-12-22T05:39:21.072Z,57.16
2022-12-22T05:41:47.870Z,57.39
2022-12-22T05:44:14.969Z,57.61
2022-12-22T05:46:41.707Z,57.54
2022-12-22T05:49:08.667Z,57.44
2022-12-22T05:51:35.642Z,57.36
2022-12-22T05:54:02.425Z,56.97
2022-12-22T05:56:29.250Z,57.49
2022-12-22T05:58:56.070Z,57.20
2022-12-22T06:01:22.748Z,58.92
2022-12-22T06:03:53.270Z,57.71
2022-12-22T06:06:23.959Z,57.57
2022-12-22T06:08:50.742Z,57.61
2022-12-22T06:11:18.373Z,57.07
2022-12-22T06:13:46.320Z,57.19
2022-12-22T06:16:13.122Z,57.04
2022-12-22T06:18:40.016Z,57.26
2022-12-22T06:21:06.701Z,57.24
2022-12-22T06:23:33.447Z,56.89
2022-12-22T06:26:02.279Z,57.56
2022-12-22T06:28:29.760Z,57.41
2022-12-22T06:30:56.683Z,57.26
2022-12-22T06:33:23.618Z,57.00
2022-12-22T06:35:57.579Z,57.12
2022-12-22T06:38:25.828Z,57.66
2022-12-22T06:40:52.619Z,57.94
2022-12-22T06:43:19.328Z,57.22
2022-12-22T06:45:46.104Z,57.27
2022-12-22T06:48:13.410Z,56.96
2022-12-22T06:50:40.632Z,56.52
2022-12-22T06:53:08.123Z,56.48
2022-12-22T06:55:35.617Z,56.44
2022-12-22T06:58:02.991Z,56.25
2022-12-22T07:00:30.052Z,55.86
2022-12-22T07:02:56.974Z,55.85
2022-12-22T07:05:24.548Z,55.34
2022-12-22T07:07:52.439Z,55.26
2022-12-22T07:10:39.602Z,55.38
2022-12-22T07:13:19.457Z,55.09
2022-12-22T07:15:53.761Z,55.78
2022-12-22T07:18:25.155Z,55.37
2022-12-22T07:20:52.020Z,54.91
2022-12-22T07:23:18.862Z,55.32
2022-12-22T07:25:45.713Z,55.50
2022-12-22T07:28:18.368Z,55.57
2022-12-22T07:30:47.414Z,55.46
2022-12-22T07:33:14.156Z,55.23
2022-12-22T07:35:40.999Z,55.01
2022-12-22T07:38:08.012Z,55.13
2022-12-22T07:40:41.155Z,55.25
2022-12-22T07:43:08.869Z,54.92
2022-12-22T07:45:36.428Z,55.10
2022-12-22T07:48:28.036Z,55.43
2022-12-22T07:51:02.351Z,55.06
2022-12-22T07:53:29.232Z,54.89
2022-12-22T07:55:55.982Z,54.70
2022-12-22T07:58:22.635Z,54.26
2022-12-22T08:00:49.396Z,54.08
2022-12-22T08:03:16.401Z,53.38
2022-12-22T08:05:43.247Z,53.13
2022-12-22T08:08:09.985Z,53.13
2022-12-22T08:10:36.913Z,52.58
2022-12-22T08:13:03.771Z,52.44
2022-12-22T08:15:30.651Z,52.71
2022-12-22T08:17:57.625Z,52.44
2022-12-22T08:20:24.472Z,52.30
2022-12-22T08:22:51.147Z,51.54
2022-12-22T08:25:18.428Z,51.29
2022-12-22T08:27:50.130Z,51.28
2022-12-22T08:30:17.033Z,50.79
2022-12-22T08:32:48.299Z,50.68
2022-12-22T08:35:15.245Z,50.29
2022-12-22T08:37:45.285Z,49.50
2022-12-22T08:40:16.377Z,48.72
2022-12-22T08:42:43.606Z,47.84
2022-12-22T08:45:11.473Z,47.12
2022-12-22T08:47:38.363Z,45.82
2022-12-22T08:50:06.264Z,45.88
2022-12-22T08:52:33.059Z,45.87
2022-12-22T08:54:59.749Z,45.32
2022-12-22T08:57:26.510Z,44.81
2022-12-22T08:59:53.271Z,45.40
2022-12-22T09:02:20.093Z,44.72
2022-12-22T09:04:46.963Z,44.97
2022-12-22T09:07:13.742Z,45.25
2022-12-22T09:09:40.753Z,45.31
2022-12-22T09:12:07.889Z,44.04
2022-12-22T09:14:34.638Z,44.58
2022-12-22T09:17:01.439Z,44.40
2022-12-22T09:19:28.310Z,45.27
2022-12-22T09:21:55.798Z,44.19
2022-12-22T09:24:22.640Z,43.47
2022-12-22T09:26:49.647Z,43.34
2022-12-22T09:29:17.063Z,43.48
2022-12-22T09:31:44.179Z,43.14
2022-12-22T09:34:17.063Z,42.59
2022-12-22T09:36:45.131Z,41.67
2022-12-22T09:39:11.950Z,42.40
2022-12-22T09:41:51.622Z,42.72
2022-12-22T09:44:23.746Z,42.19
2022-12-22T09:46:52.479Z,41.68
2022-12-22T09:49:20.768Z,42.02
2022-12-22T09:51:51.807Z,41.90
2022-12-22T09:54:19.641Z,41.07
2022-12-22T09:56:46.382Z,41.01
2022-12-22T09:59:16.082Z,40.44
2022-12-22T10:01:58.227Z,40.56
2022-12-22T10:05:00.572Z,39.89
2022-12-22T10:07:32.381Z,39.68
2022-12-22T10:10:24.830Z,40.58
2022-12-22T10:12:59.453Z,41.20
2022-12-22T10:15:27.925Z,40.75
2022-12-22T10:18:10.502Z,40.45
2022-12-22T10:20:39.876Z,40.57
2022-12-22T10:23:15.368Z,45.12
2022-12-22T10:28:48.121Z,41.20
2022-12-22T10:31:21.830Z,41.27
2022-12-22T10:33:52.856Z,41.04
2022-12-22T10:36:25.137Z,40.85
2022-12-22T10:39:05.464Z,39.81
2022-12-22T10:41:36.537Z,41.06
2022-12-22T10:44:19.336Z,41.74
2022-12-22T10:46:51.984Z,41.60
2022-12-22T10:49:30.804Z,41.05
2022-12-22T10:52:18.398Z,41.22
2022-12-22T10:54:47.732Z,41.13
2022-12-22T10:57:14.582Z,40.62
2022-12-22T10:59:49.948Z,40.44
2022-12-22T11:02:34.559Z,40.95
2022-12-22T11:05:07.715Z,40.17
2022-12-22T11:07:40.122Z,40.41
2022-12-22T11:10:28.780Z,40.01
2022-12-22T11:12:55.568Z,40.22
2022-12-22T11:15:28.890Z,40.26
2022-12-22T11:18:22.900Z,40.43
2022-12-22T11:21:01.281Z,40.02
2022-12-22T11:23:44.470Z,38.96
2022-12-22T11:26:31.330Z,38.39
2022-12-22T11:29:17.526Z,39.50
2022-12-22T11:31:47.063Z,39.23
2022-12-22T11:34:23.232Z,39.52
2022-12-22T11:37:28.904Z,39.22
2022-12-22T11:40:15.677Z,38.66
2022-12-22T11:43:09.226Z,38.99
2022-12-22T11:45:51.532Z,38.87
2022-12-22T11:48:36.729Z,40.45
2022-12-22T11:51:14.880Z,38.88
2022-12-22T11:54:13.273Z,37.27
2022-12-22T11:56:45.100Z,36.07
2022-12-22T11:59:29.716Z,34.77
2022-12-22T12:02:02.543Z,34.09
2022-12-22T12:04:59.203Z,32.29
2022-12-22T12:07:28.072Z,33.02
2022-12-22T12:10:24.782Z,32.27
2022-12-22T12:13:10.503Z,31.01
2022-12-22T12:15:45.158Z,30.98
2022-12-22T12:18:31.601Z,30.44
2022-12-22T12:21:27.776Z,30.26
2022-12-22T12:24:13.263Z,30.39
2022-12-22T12:27:17.025Z,31.01
2022-12-22T12:30:35.634Z,31.47
2022-12-22T12:33:03.893Z,29.98
2022-12-22T12:35:53.815Z,29.06
2022-12-22T12:39:06.738Z,30.36
2022-12-22T12:41:29.480Z,29.88
2022-12-22T12:43:58.172Z,28.42
2022-12-22T12:46:54.842Z,26.70
2022-12-22T12:50:00.544Z,26.10
2022-12-22T12:52:39.870Z,26.83
2022-12-22T12:55:32.859Z,27.98
2022-12-22T12:58:03.451Z,28.49
2022-12-22T13:00:33.339Z,28.52
2022-12-22T13:03:19.915Z,27.87
2022-12-22T13:06:00.724Z,28.89
2022-12-22T13:08:31.361Z,28.20
2022-12-22T13:10:58.096Z,29.19
2022-12-22T13:13:24.841Z,28.54
2022-12-22T13:16:00.828Z,31.25
2022-12-22T13:18:30.824Z,31.55
2022-12-22T13:21:18.656Z,32.14
2022-12-22T13:24:24.287Z,32.54
2022-12-22T13:26:55.321Z,33.64
2022-12-22T13:29:22.172Z,34.23
2022-12-22T13:32:27.606Z,34.66
2022-12-22T13:35:31.516Z,34.97
2022-12-22T13:37:59.206Z,35.98
2022-12-22T13:40:32.033Z,35.69
2022-12-22T13:43:20.598Z,36.58
2022-12-22T13:45:53.241Z,38.16
2022-12-22T13:48:30.473Z,37.47
2022-12-22T13:51:03.528Z,37.51
2022-12-22T13:54:07.179Z,37.98
2022-12-22T13:56:38.264Z,37.21
2022-12-22T13:59:15.062Z,37.49
2022-12-22T14:01:56.400Z,37.87
2022-12-22T14:04:23.728Z,37.96
2022-12-22T14:06:50.494Z,37.98
2022-12-22T14:09:27.746Z,37.62
2022-12-22T14:12:00.770Z,37.85
2022-12-22T14:14:36.798Z,37.76
2022-12-22T14:17:05.257Z,38.35
2022-12-22T14:19:36.163Z,38.00
2022-12-22T14:22:14.171Z,38.40
2022-12-22T14:24:54.635Z,38.37
2022-12-22T14:27:46.855Z,38.69
2022-12-22T14:30:21.989Z,38.97
2022-12-22T14:32:55.221Z,38.48
2022-12-22T14:35:22.694Z,38.40
2022-12-22T14:38:02.822Z,38.80
2022-12-22T14:40:43.409Z,37.95
2022-12-22T14:43:18.993Z,38.70
2022-12-22T14:45:48.133Z,38.61
2022-12-22T14:48:45.544Z,38.73
2022-12-22T14:51:19.856Z,39.18
2022-12-22T14:53:56.773Z,39.30
2022-12-22T14:56:25.349Z,39.40
2022-12-22T14:59:07.112Z,39.57
2022-12-22T15:01:33.988Z,38.89
2022-12-22T15:04:20.609Z,39.28
2022-12-22T15:06:48.575Z,39.33
2022-12-22T15:09:15.317Z,40.03
2022-12-22T15:12:05.265Z,39.86
2022-12-22T15:14:38.881Z,39.39
2022-12-22T15:17:12.734Z,40.14
2022-12-22T15:19:39.746Z,39.91
2022-12-22T15:22:07.996Z,40.24
2022-12-22T15:24:34.716Z,40.13
2022-12-22T15:27:01.433Z,40.44
2022-12-22T15:29:28.356Z,40.58
2022-12-22T15:31:55.060Z,40.72
2022-12-22T15:34:25.816Z,40.94
2022-12-22T15:36:52.704Z,41.14
2022-12-22T15:39:21.374Z,40.81
2022-12-22T15:41:48.412Z,41.54
2022-12-22T15:44:15.447Z,41.32
2022-12-22T15:46:44.905Z,41.61
2022-12-22T15:49:19.799Z,41.39
2022-12-22T15:51:52.227Z,41.61
2022-12-22T15:54:19.257Z,42.35
2022-12-22T15:56:47.282Z,42.89
2022-12-22T15:59:21.240Z,43.29
2022-12-22T16:01:48.116Z,43.83
2022-12-22T16:04:15.155Z,44.71
2022-12-22T16:06:41.911Z,44.88
2022-12-22T16:09:18.391Z,43.08
2022-12-22T16:11:45.351Z,43.50
2022-12-22T16:14:13.526Z,43.59
2022-12-22T16:16:41.702Z,44.33
2022-12-22T16:19:14.350Z,43.79
2022-12-22T16:21:42.515Z,47.06
2022-12-22T16:24:22.476Z,48.83
2022-12-22T16:26:49.344Z,49.75
2022-12-22T16:29:17.102Z,49.86
2022-12-22T16:31:44.065Z,50.49
2022-12-22T16:34:13.642Z,49.73
2022-12-22T16:36:40.307Z,51.23
2022-12-22T16:39:10.101Z,49.93
2022-12-22T16:41:37.092Z,49.11
2022-12-22T16:46:53.544Z,48.99
2022-12-22T16:49:26.358Z,48.34
2022-12-22T16:51:54.660Z,48.34
2022-12-22T16:54:21.513Z,49.32
2022-12-22T16:56:51.245Z,49.54
2022-12-22T16:59:18.403Z,50.35
2022-12-22T17:01:51.721Z,49.12
2022-12-22T17:04:29.909Z,50.51
2022-12-22T17:06:59.794Z,50.45
2022-12-22T17:09:32.415Z,50.46
2022-12-22T17:12:01.250Z,49.73
2022-12-22T17:14:33.098Z,50.10
2022-12-22T17:17:00.117Z,51.08
2022-12-22T17:19:27.097Z,50.71
2022-12-22T17:21:55.826Z,50.22
2022-12-22T17:24:28.080Z,49.60
2022-12-22T17:27:06.204Z,49.67
2022-12-22T17:29:35.192Z,49.57
2022-12-22T17:32:02.142Z,48.91
2022-12-22T17:34:28.974Z,49.50
2022-12-22T17:36:58.802Z,48.94
2022-12-22T17:39:25.979Z,49.59
2022-12-22T17:41:56.971Z,50.35
2022-12-22T17:44:26.431Z,51.71
2022-12-22T17:46:53.668Z,50.75
2022-12-22T17:49:22.692Z,50.87
2022-12-22T17:51:50.543Z,51.70
2022-12-22T17:54:23.811Z,54.21
2022-12-22T17:56:52.246Z,51.82
2022-12-22T17:59:19.080Z,51.87
2022-12-22T18:01:46.021Z,51.29
2022-12-22T18:04:13.594Z,51.18
2022-12-22T18:06:42.581Z,50.62
2022-12-22T18:09:19.835Z,50.66
2022-12-22T18:11:46.803Z,50.85
2022-12-22T18:14:14.442Z,51.20
2022-12-22T18:16:42.535Z,50.88
2022-12-22T18:19:09.780Z,51.56
2022-12-22T18:21:36.814Z,50.96
2022-12-22T18:24:04.300Z,51.21
2022-12-22T18:26:31.259Z,51.24
2022-12-22T18:28:58.294Z,51.27
2022-12-22T18:31:25.917Z,50.35
2022-12-22T18:33:53.258Z,50.09
2022-12-22T18:36:27.561Z,49.97
2022-12-22T18:38:55.090Z,49.81
2022-12-22T18:41:24.551Z,51.27
2022-12-22T18:43:51.786Z,51.83
2022-12-22T18:46:19.802Z,50.92
2022-12-22T18:48:47.661Z,51.85
2022-12-22T18:51:25.428Z,51.92
2022-12-22T18:53:54.535Z,52.06
2022-12-22T18:56:22.041Z,51.41
2022-12-22T18:58:48.867Z,52.02
2022-12-22T19:01:24.867Z,51.24
2022-12-22T19:03:55.264Z,50.98
2022-12-22T19:06:23.074Z,51.59
2022-12-22T19:08:51.443Z,54.30
2022-12-22T19:11:25.065Z,54.42
2022-12-22T19:13:52.577Z,53.49
2022-12-22T19:16:26.604Z,52.09
2022-12-22T19:18:53.731Z,51.93
2022-12-22T19:21:21.577Z,51.17
2022-12-22T19:23:48.489Z,51.82
2022-12-22T19:26:26.931Z,51.89
2022-12-22T19:29:01.234Z,51.66
2022-12-22T19:31:33.636Z,51.34
2022-12-22T19:34:06.505Z,51.56
2022-12-22T19:36:34.435Z,52.14
2022-12-22T19:39:05.057Z,52.07
2022-12-22T19:41:54.245Z,51.24
2022-12-22T19:44:26.789Z,50.94
2022-12-22T19:46:56.158Z,51.50
2022-12-22T19:49:25.095Z,51.41
2022-12-22T19:51:51.902Z,51.52
2022-12-22T19:54:20.019Z,51.76
2022-12-22T19:56:50.994Z,52.17
2022-12-22T19:59:39.586Z,52.66
2022-12-22T20:02:22.062Z,51.98
2022-12-22T20:04:50.127Z,53.37
2022-12-22T20:07:19.948Z,52.84
2022-12-22T20:09:47.068Z,52.17
2022-12-22T20:12:35.431Z,51.69
2022-12-22T20:15:13.571Z,55.81
2022-12-22T20:17:40.484Z,55.92
2022-12-22T20:20:13.273Z,53.95
2022-12-22T20:22:46.746Z,53.48
2022-12-22T20:25:23.177Z,53.32
2022-12-22T20:27:51.698Z,52.82
2022-12-22T20:30:23.166Z,53.05
2022-12-22T20:32:50.213Z,52.77
2022-12-22T20:35:18.881Z,55.07
2022-12-22T20:37:45.637Z,55.15
2022-12-22T20:40:30.906Z,54.83
2022-12-22T20:42:58.336Z,53.78
2022-12-22T20:45:29.636Z,53.86
2022-12-22T20:47:58.826Z,53.69
2022-12-22T20:50:28.961Z,53.82
2022-12-22T20:52:56.705Z,53.38
2022-12-22T20:55:26.678Z,53.31
2022-12-22T20:57:54.075Z,52.84
2022-12-22T21:00:29.138Z,52.86
2022-12-22T21:02:56.074Z,52.75
2022-12-22T21:05:23.367Z,52.74
2022-12-22T21:07:50.470Z,52.28
2022-12-22T21:10:28.265Z,52.56
2022-12-22T21:12:55.073Z,52.70
2022-12-22T21:15:28.241Z,53.87
2022-12-22T21:17:58.406Z,54.26
2022-12-22T21:20:29.248Z,55.14
2022-12-22T21:22:56.184Z,54.83
2022-12-22T21:25:23.987Z,54.71
2022-12-22T21:27:52.216Z,54.55
2022-12-22T21:30:22.418Z,54.17
2022-12-22T21:32:50.232Z,54.25
2022-12-22T21:35:21.393Z,53.94
2022-12-22T21:37:50.693Z,53.51
2022-12-22T21:40:23.123Z,53.66
2022-12-22T21:42:51.213Z,54.30
2022-12-22T21:45:21.493Z,53.64
2022-12-22T21:47:49.207Z,53.83
2022-12-22T21:50:24.884Z,53.56
2022-12-22T21:52:52.585Z,53.88
2022-12-22T21:55:31.651Z,53.49
2022-12-22T21:57:59.377Z,53.73
2022-12-22T22:00:28.584Z,53.47
2022-12-22T22:02:56.839Z,53.28
2022-12-22T22:05:29.201Z,54.02
2022-12-22T22:07:57.791Z,53.85
2022-12-22T22:10:27.911Z,54.39
2022-12-22T22:12:54.974Z,54.09
2022-12-22T22:15:23.743Z,54.19
2022-12-22T22:17:50.518Z,54.23
2022-12-22T22:20:20.398Z,54.04
2022-12-22T22:22:48.326Z,53.89
2022-12-22T22:25:16.646Z,54.05
2022-12-22T22:27:47.702Z,53.74
2022-12-22T22:30:21.472Z,54.11
2022-12-22T22:32:49.267Z,54.34
2022-12-22T22:35:18.498Z,54.79
2022-12-22T22:37:46.190Z,54.10
2022-12-22T22:40:15.421Z,54.46
2022-12-22T22:42:42.320Z,54.56
2022-12-22T22:45:13.038Z,54.36
2022-12-22T22:47:40.378Z,54.53
2022-12-22T22:50:08.907Z,54.74
2022-12-22T22:52:37.151Z,54.87
2022-12-22T22:55:04.229Z,54.31
2022-12-22T22:57:31.090Z,54.13
2022-12-22T22:59:57.814Z,53.94
2022-12-22T23:02:24.808Z,53.85
2022-12-22T23:04:51.689Z,53.65
2022-12-22T23:07:18.429Z,53.44
2022-12-22T23:09:45.288Z,53.80
2022-12-22T23:12:12.076Z,54.18
2022-12-22T23:14:39.352Z,54.04
2022-12-22T23:17:06.221Z,54.41
2022-12-22T23:19:33.222Z,53.88
2022-12-22T23:21:59.917Z,53.62
2022-12-22T23:24:27.025Z,53.64
2022-12-22T23:26:53.769Z,53.22
2022-12-22T23:29:20.718Z,53.81
2022-12-22T23:31:47.569Z,53.64
2022-12-22T23:34:14.563Z,53.89
2022-12-22T23:36:41.375Z,53.91
2022-12-22T23:39:08.635Z,53.98
2022-12-22T23:41:35.858Z,53.88
2022-12-22T23:44:02.665Z,53.91
2022-12-22T23:46:29.612Z,53.65
2022-12-22T23:48:58.436Z,52.98
2022-12-22T23:51:27.699Z,53.85
2022-12-22T23:54:00.240Z,53.49
2022-12-22T23:56:28.299Z,53.93
2022-12-22T23:58:55.447Z,53.98
